Time;durP1;ratioP1;P1;durP2;ratioP2;P2;SDS_P1;SDS_P2;PMS_P1;PMS_P2;Temp;Humidity;BMP_temperature;BMP_pressure;BME280_temperature;BME280_humidity;BME280_pressure;Samples;Min_cycle;Max_cycle;Signal;HPM_P1;HPM_P2
2022/06/19 00:02:04;;;;;;;6.28;1.50;;;;;;;26.19;47.80;101229.69;5023795;28;20075;-44
2022/06/19 00:04:31;;;;;;;4.78;1.48;;;;;;;26.18;47.92;101219.84;5021648;28;20061;-42
2022/06/19 00:06:58;;;;;;;5.38;1.40;;;;;;;26.18;47.79;101228.00;5023081;28;20045;-44
2022/06/19 00:09:25;;;;;;;5.72;1.65;;;;;;;26.17;47.78;101229.03;5025139;28;20156;-44
2022/06/19 00:11:55;;;;;;;6.00;1.48;;;;;;;26.15;47.87;101220.25;5018864;28;20447;-43
2022/06/19 00:14:23;;;;;;;2.13;1.20;;;;;;;26.15;47.63;101220.25;5023769;28;20037;-45
2022/06/19 00:16:49;;;;;;;7.43;1.95;;;;;;;26.14;47.75;101210.41;5022063;28;20053;-44
2022/06/19 00:19:16;;;;;;;3.63;1.20;;;;;;;26.13;47.84;101223.16;5024219;28;20053;-44
2022/06/19 00:21:44;;;;;;;3.38;1.10;;;;;;;26.11;47.67;101214.38;5023988;28;20140;-46
2022/06/19 00:24:10;;;;;;;4.43;1.52;;;;;;;26.11;47.45;101198.06;5026005;28;20053;-45
2022/06/19 00:26:37;;;;;;;3.47;1.33;;;;;;;26.11;47.72;101205.38;5020360;28;20053;-44
2022/06/19 00:29:03;;;;;;;5.43;1.08;;;;;;;26.11;47.71;101208.09;5024122;28;20049;-44
2022/06/19 00:31:30;;;;;;;5.38;1.40;;;;;;;26.09;47.79;101217.28;5019411;28;20053;-45
2022/06/19 00:33:56;;;;;;;2.97;0.95;;;;;;;26.08;47.61;101204.72;5024605;28;20313;-46
2022/06/19 00:36:26;;;;;;;5.40;1.52;;;;;;;26.09;47.56;101208.28;5021563;28;20046;-44
2022/06/19 00:38:54;;;;;;;4.28;1.30;;;;;;;26.06;47.61;101247.56;5024160;28;20140;-46
2022/06/19 00:41:21;;;;;;;5.32;1.88;;;;;;;26.06;47.84;101307.34;5023044;28;20391;-46
2022/06/19 00:44:03;;;;;;;3.20;1.10;;;;;;;26.05;47.64;101372.72;5021882;28;20072;-46
2022/06/19 00:46:52;;;;;;;5.15;1.40;;;;;;;26.06;47.66;101385.28;5024744;28;20042;-45
2022/06/19 00:49:31;;;;;;;5.30;1.38;;;;;;;26.06;47.69;101402.41;5022250;28;20046;-44
2022/06/19 00:52:08;;;;;;;4.72;1.02;;;;;;;26.06;47.78;101405.13;5021642;28;20049;-46
2022/06/19 00:54:59;;;;;;;2.03;0.75;;;;;;;26.05;47.66;101370.00;5022676;28;20055;-44
2022/06/19 00:57:29;;;;;;;4.50;1.23;;;;;;;26.05;47.57;101335.53;5022825;28;20124;-43
2022/06/19 01:00:07;;;;;;;3.30;1.00;;;;;;;26.04;47.64;101308.56;5022994;28;20053;-44
2022/06/19 01:02:33;;;;;;;2.10;1.05;;;;;;;26.04;47.48;101289.53;5021775;28;20088;-46
2022/06/19 01:05:01;;;;;;;3.60;1.20;;;;;;;26.02;47.50;101276.16;5020624;28;20065;-43
2022/06/19 01:07:28;;;;;;;3.30;1.10;;;;;;;26.00;47.45;101278.22;5023599;28;20492;-44
2022/06/19 01:09:55;;;;;;;3.22;1.15;;;;;;;25.99;47.42;101286.56;5022038;28;20137;-44
2022/06/19 01:12:23;;;;;;;3.90;1.15;;;;;;;25.99;47.57;101284.69;5027985;28;20270;-43
2022/06/19 01:14:56;;;;;;;3.42;1.00;;;;;;;25.98;47.47;101277.59;5025312;28;20060;-43
2022/06/19 01:17:23;;;;;;;4.80;1.48;;;;;;;25.98;47.53;101279.47;5021919;28;20417;-43
2022/06/19 01:19:50;;;;;;;4.22;1.25;;;;;;;25.97;47.55;101311.22;5025246;28;20492;-45
2022/06/19 01:22:27;;;;;;;2.60;0.88;;;;;;;25.95;47.42;101331.47;5022426;28;20042;-46
2022/06/19 01:25:15;;;;;;;1.88;0.82;;;;;;;25.94;47.43;101322.47;5019292;28;20041;-44
2022/06/19 01:30:36;;;;;;;3.20;1.03;;;;;;;25.93;47.50;101328.94;5023443;28;20281;-43
2022/06/19 01:33:07;;;;;;;3.58;1.20;;;;;;;25.92;47.45;101332.69;5027254;28;20053;-43
2022/06/19 01:35:36;;;;;;;2.70;0.95;;;;;;;25.90;47.36;101325.78;5025726;28;20085;-44
2022/06/19 01:38:09;;;;;;;3.03;1.10;;;;;;;25.90;47.57;101328.50;5029713;28;20044;-43
2022/06/19 01:40:36;;;;;;;4.22;1.10;;;;;;;25.90;47.36;101325.78;5022261;28;20140;-43
2022/06/19 01:43:05;;;;;;;3.35;1.02;;;;;;;25.88;47.37;101331.38;5023349;28;20064;-43
2022/06/19 01:45:32;;;;;;;4.10;1.23;;;;;;;25.88;47.35;101323.25;5025961;28;20038;-44
2022/06/19 01:48:00;;;;;;;4.32;1.27;;;;;;;25.86;47.41;101325.31;5019779;28;20042;-43
2022/06/19 01:50:31;;;;;;;3.22;1.38;;;;;;;25.87;47.36;101326.16;5020434;28;20069;-43
2022/06/19 01:53:10;;;;;;;1.88;0.90;;;;;;;25.84;47.43;101311.91;5023060;28;20068;-43
2022/06/19 01:55:38;;;;;;;4.35;0.93;;;;;;;25.85;47.35;101307.34;5020689;28;20042;-42
2022/06/19 01:58:06;;;;;;;4.10;1.08;;;;;;;25.84;47.24;101297.50;5025843;28;20053;-43
2022/06/19 02:00:35;;;;;;;1.48;0.73;;;;;;;25.83;47.29;101293.94;5021910;28;20042;-43
2022/06/19 02:03:40;;;;;;;3.88;1.23;;;;;;;25.81;47.49;101270.75;5024568;28;20107;-43
2022/06/19 02:06:10;;;;;;;2.70;0.80;;;;;;;25.82;47.25;101259.69;5024509;28;20096;-44
2022/06/19 02:08:38;;;;;;;3.10;0.85;;;;;;;25.81;47.04;101284.34;5018466;28;20056;-42
2022/06/19 02:11:06;;;;;;;2.42;0.75;;;;;;;25.78;47.04;101312.72;5017306;28;20148;-44
2022/06/19 02:13:34;;;;;;;3.55;0.77;;;;;;;25.77;47.21;101359.00;5018614;28;20038;-44
2022/06/19 02:16:10;;;;;;;3.17;0.88;;;;;;;25.77;47.13;101414.22;5019662;28;20073;-43
2022/06/19 02:18:40;;;;;;;6.10;1.20;;;;;;;25.77;47.53;101418.75;5022350;28;20293;-44
2022/06/19 02:21:11;;;;;;;3.05;0.90;;;;;;;25.76;47.37;101384.50;5023014;28;20049;-45
2022/06/19 02:23:39;;;;;;;3.30;0.90;;;;;;;25.75;47.07;101329.34;5017021;28;20041;-44
2022/06/19 02:26:09;;;;;;;2.65;0.90;;;;;;;25.74;47.25;101302.41;5020735;28;20053;-43
2022/06/19 02:28:39;;;;;;;1.98;0.90;;;;;;;25.73;47.15;101289.84;5020459;28;20136;-43
2022/06/19 02:31:08;;;;;;;2.80;0.77;;;;;;;25.73;47.39;101268.97;5018531;28;20049;-43
2022/06/19 02:33:41;;;;;;;2.65;0.70;;;;;;;25.71;47.06;101257.47;5017744;28;20804;-42
2022/06/19 02:36:38;;;;;;;2.92;0.82;;;;;;;25.71;47.02;101289.22;5022439;28;20048;-45
2022/06/19 02:39:28;;;;;;;2.55;0.75;;;;;;;25.70;47.33;101380.69;5022760;28;20042;-48
2022/06/19 02:42:20;;;;;;;3.13;1.38;;;;;;;25.69;47.13;101511.19;5021925;28;20129;-46
2022/06/19 02:44:50;;;;;;;3.50;0.93;;;;;;;25.69;47.15;101544.66;5019546;28;20048;-43
2022/06/19 02:47:17;;;;;;;8.35;1.02;;;;;;;25.68;47.44;101464.19;5024982;28;20049;-45
2022/06/19 02:49:44;;;;;;;7.85;0.98;;;;;;;25.68;47.23;101393.59;5021895;28;20053;-44
2022/06/19 02:52:12;;;;;;;2.20;0.73;;;;;;;25.67;47.20;101391.91;5023664;28;20037;-44
2022/06/19 02:54:39;;;;;;;3.13;1.02;;;;;;;25.66;47.28;101379.38;5026937;28;20042;-44
2022/06/19 02:57:07;;;;;;;2.72;0.63;;;;;;;25.67;47.25;101312.34;5026081;28;20033;-43
2022/06/19 02:59:33;;;;;;;3.53;0.80;;;;;;;25.64;47.05;101270.13;5025866;28;20052;-45
2022/06/19 03:02:00;;;;;;;2.97;0.88;;;;;;;25.63;47.36;101267.63;5026095;28;20055;-44
2022/06/19 03:04:32;;;;;;;3.28;0.82;;;;;;;25.63;47.24;101254.88;5024761;28;20099;-45
2022/06/19 03:06:59;;;;;;;4.20;0.80;;;;;;;25.63;47.22;101259.47;5024004;28;20044;-45
2022/06/19 03:09:25;;;;;;;6.50;1.52;;;;;;;25.62;47.32;101245.06;5026630;28;20050;-46
2022/06/19 03:11:52;;;;;;;3.72;1.00;;;;;;;25.62;47.42;101192.66;5027827;28;20311;-45
2022/06/19 03:14:19;;;;;;;4.30;0.82;;;;;;;25.62;47.47;101155.47;5022748;28;20310;-47
2022/06/19 03:16:45;;;;;;;3.63;0.95;;;;;;;25.60;47.06;101116.81;5027278;28;20051;-45
2022/06/19 03:19:13;;;;;;;4.18;0.75;;;;;;;25.59;47.32;101069.00;5026274;28;20069;-44
2022/06/19 03:21:39;;;;;;;4.38;0.90;;;;;;;25.57;47.07;101046.66;5027334;28;20049;-44
2022/06/19 03:24:06;;;;;;;3.28;0.73;;;;;;;25.55;47.44;101038.69;5024550;28;20348;-45
2022/06/19 03:26:33;;;;;;;5.10;1.05;;;;;;;25.54;47.08;101066.03;5022984;28;20047;-45
2022/06/19 03:28:59;;;;;;;2.25;0.85;;;;;;;25.53;46.95;101043.50;5024300;28;20393;-45
2022/06/19 03:31:28;;;;;;;5.22;1.00;;;;;;;25.51;46.87;101015.69;5024006;28;20422;-45
2022/06/19 03:33:55;;;;;;;2.28;0.70;;;;;;;25.51;47.14;101012.16;5027862;28;20041;-43
2022/06/19 03:36:21;;;;;;;2.08;0.80;;;;;;;25.49;47.17;101015.06;5025284;28;20056;-44
2022/06/19 03:38:48;;;;;;;2.13;0.75;;;;;;;25.47;47.26;101030.72;5026566;28;20047;-46
2022/06/19 03:41:15;;;;;;;1.60;0.65;;;;;;;25.48;47.41;101045.09;5025068;28;20667;-45
2022/06/19 03:43:42;;;;;;;2.83;1.02;;;;;;;25.46;47.33;101060.78;5024448;28;20579;-43
2022/06/19 03:46:15;;;;;;;4.55;0.90;;;;;;;25.45;47.44;101067.22;5023570;28;20479;-43
2022/06/19 03:48:44;;;;;;;2.97;0.65;;;;;;;25.45;47.13;101073.50;5025599;28;20068;-47
2022/06/19 03:51:10;;;;;;;3.95;1.00;;;;;;;25.45;47.17;101103.34;5023307;28;20498;-46
2022/06/19 03:53:38;;;;;;;4.40;1.13;;;;;;;25.43;47.16;101116.25;5023206;28;20050;-48
2022/06/19 03:56:06;;;;;;;3.42;0.60;;;;;;;25.43;47.31;101135.25;5024709;28;20449;-43
2022/06/19 03:58:46;;;;;;;2.75;0.77;;;;;;;25.43;47.57;101124.41;5023734;28;20041;-45
2022/06/19 04:01:22;;;;;;;4.05;1.33;;;;;;;25.42;47.35;101117.31;5020405;28;20038;-46
2022/06/19 04:03:51;;;;;;;3.60;0.90;;;;;;;25.41;47.37;101115.63;5020471;28;20046;-44
2022/06/19 04:06:20;;;;;;;3.17;0.82;;;;;;;25.41;47.14;101093.94;5021805;28;20045;-46
2022/06/19 04:08:47;;;;;;;6.40;1.08;;;;;;;25.41;47.40;101050.50;5020659;28;20332;-47
2022/06/19 04:11:15;;;;;;;2.95;0.90;;;;;;;25.42;47.19;101018.78;5023773;28;20044;-43
2022/06/19 04:13:42;;;;;;;4.78;0.88;;;;;;;25.41;47.02;100970.94;5023514;28;20048;-44
2022/06/19 04:16:14;;;;;;;4.30;0.88;;;;;;;25.39;47.37;100945.91;5023661;28;20144;-47
2022/06/19 04:18:41;;;;;;;3.20;0.77;;;;;;;25.38;47.18;100906.25;5022692;28;20060;-44
2022/06/19 04:21:15;;;;;;;2.13;0.90;;;;;;;25.36;47.24;100798.72;5023650;28;20488;-45
2022/06/19 04:23:41;;;;;;;;;;;;;;;25.35;47.17;100782.66;5025190;28;20053;-44
2022/06/19 04:26:11;;;;;;;3.72;0.70;;;;;;;25.35;47.18;100763.66;5022903;28;19923;-44
2022/06/19 04:28:38;;;;;;;3.70;1.23;;;;;;;25.31;47.25;100736.09;5023576;28;20067;-47
2022/06/19 04:31:06;;;;;;;3.08;0.55;;;;;;;25.29;47.29;100757.19;5023846;28;20049;-47
2022/06/19 04:33:37;;;;;;;3.08;0.90;;;;;;;25.28;47.63;100879.47;5022717;28;20314;-47
2022/06/19 04:36:04;;;;;;;4.35;1.05;;;;;;;25.27;47.31;101089.41;5026555;28;20137;-46
2022/06/19 04:38:30;;;;;;;4.40;1.00;;;;;;;25.25;47.94;101132.19;5023060;28;20056;-44
2022/06/19 04:40:57;;;;;;;5.60;1.08;;;;;;;25.25;47.63;101159.31;5022734;28;20056;-45
2022/06/19 04:43:24;;;;;;;4.50;1.00;;;;;;;25.24;47.94;101155.75;5022521;28;20364;-44
2022/06/19 04:45:50;;;;;;;2.45;0.73;;;;;;;25.24;47.70;101160.34;5024953;28;20037;-43
2022/06/19 04:48:17;;;;;;;3.78;1.30;;;;;;;25.24;47.84;101163.88;5021281;28;20417;-46
2022/06/19 04:50:44;;;;;;;4.22;0.85;;;;;;;25.23;47.30;101155.94;5025981;28;20054;-45
2022/06/19 04:53:10;;;;;;;4.82;1.30;;;;;;;25.23;47.61;101166.81;5027089;28;20639;-44
2022/06/19 04:55:37;;;;;;;2.38;0.60;;;;;;;25.23;47.91;101186.63;5026776;28;20168;-45
2022/06/19 04:58:04;;;;;;;3.20;0.77;;;;;;;25.24;47.43;101182.03;5025331;28;20065;-48
2022/06/19 05:00:31;;;;;;;3.22;0.60;;;;;;;25.24;47.17;101155.75;5026443;28;20367;-46
2022/06/19 05:02:58;;;;;;;2.80;0.75;;;;;;;25.24;47.34;101150.31;5022943;28;20041;-44
2022/06/19 05:05:25;;;;;;;3.17;0.60;;;;;;;25.25;47.70;101170.19;5023427;28;20515;-48
2022/06/19 05:07:51;;;;;;;3.60;1.10;;;;;;;25.25;47.57;101181.88;5022793;28;20286;-46
2022/06/19 05:10:18;;;;;;;3.13;0.57;;;;;;;25.26;47.32;101169.97;5026881;28;20063;-45
2022/06/19 05:12:44;;;;;;;3.28;0.80;;;;;;;25.28;47.12;101164.34;5021930;28;20133;-45
2022/06/19 05:15:11;;;;;;;3.03;0.95;;;;;;;25.27;47.21;101160.78;5025638;28;20049;-44
2022/06/19 05:17:38;;;;;;;3.78;1.15;;;;;;;25.29;47.22;101180.44;5024289;28;20372;-47
2022/06/19 05:20:05;;;;;;;3.00;0.95;;;;;;;25.29;47.78;101207.59;5026073;28;20421;-46
2022/06/19 05:22:33;;;;;;;3.10;0.88;;;;;;;25.30;47.89;101224.69;5020333;28;20282;-47
2022/06/19 05:25:00;;;;;;;2.42;0.82;;;;;;;25.29;47.67;101223.88;5023617;28;20068;-48
2022/06/19 05:27:27;;;;;;;5.22;1.02;;;;;;;25.29;47.65;101198.59;5022678;28;20046;-46
2022/06/19 05:29:53;;;;;;;3.38;1.63;;;;;;;25.30;47.25;101195.69;5020540;28;20079;-48
2022/06/19 05:32:20;;;;;;;6.28;2.60;;;;;;;25.31;47.51;101208.22;5018004;28;20064;-44
2022/06/19 05:34:47;;;;;;;7.05;3.35;;;;;;;25.31;47.39;101235.34;5022579;28;20116;-44
2022/06/19 05:37:14;;;;;;;8.82;3.92;;;;;;;25.31;47.45;101257.06;5018386;28;20552;-44
2022/06/19 05:39:41;;;;;;;10.38;4.88;;;;;;;25.31;47.34;101245.38;5017661;28;20084;-44
2022/06/19 05:42:08;;;;;;;12.48;5.15;;;;;;;25.31;47.26;101213.63;5023687;28;20140;-46
2022/06/19 05:44:36;;;;;;;12.30;5.00;;;;;;;25.30;47.51;101209.25;5021964;28;20052;-44
2022/06/19 05:47:03;;;;;;;11.88;5.13;;;;;;;25.30;47.08;101175.84;5021277;28;20045;-45
2022/06/19 05:49:32;;;;;;;11.02;5.63;;;;;;;25.30;47.24;101175.84;5021837;28;20302;-44
2022/06/19 05:51:59;;;;;;;12.07;6.20;;;;;;;25.28;46.92;101101.94;5020532;28;20042;-44
2022/06/19 05:54:27;;;;;;;10.35;5.25;;;;;;;25.27;47.10;101081.28;5021986;28;20148;-45
2022/06/19 05:56:54;;;;;;;13.52;5.85;;;;;;;25.24;46.98;101155.75;5021547;28;20128;-44
2022/06/19 05:59:21;;;;;;;11.65;5.95;;;;;;;25.23;46.62;101204.78;5018531;28;20048;-45
2022/06/19 06:01:47;;;;;;;15.32;6.38;;;;;;;25.22;46.46;101205.84;5021957;28;20050;-44
2022/06/19 06:04:14;;;;;;;14.45;6.82;;;;;;;25.21;46.26;101190.59;5022240;28;20037;-49
2022/06/19 06:06:41;;;;;;;14.82;7.78;;;;;;;25.21;46.42;101194.16;5020223;28;20049;-45
2022/06/19 06:09:12;;;;;;;14.45;7.82;;;;;;;25.20;46.64;101229.59;5021995;28;20064;-43
2022/06/19 06:11:39;;;;;;;20.70;8.30;;;;;;;25.18;46.73;101256.91;5020571;28;20045;-46
2022/06/19 06:14:06;;;;;;;15.45;9.05;;;;;;;25.18;46.52;101272.34;5021310;28;20042;-44
2022/06/19 06:16:32;;;;;;;15.80;9.27;;;;;;;25.17;46.70;101301.38;5018426;28;20042;-45
2022/06/19 06:18:59;;;;;;;15.52;8.63;;;;;;;25.19;46.51;101339.13;5017419;28;20053;-44
2022/06/19 06:21:25;;;;;;;19.42;10.57;;;;;;;25.18;46.52;101356.47;5022993;28;20038;-44
2022/06/19 06:23:54;;;;;;;35.97;16.63;;;;;;;25.17;47.76;101371.91;5021296;28;20048;-45
2022/06/19 06:26:27;;;;;;;51.35;20.55;;;;;;;25.19;51.04;101383.38;5021581;28;20041;-44
2022/06/19 06:28:56;;;;;;;47.60;19.95;;;;;;;25.25;54.30;101387.25;5024612;28;20124;-44
2022/06/19 06:31:23;;;;;;;52.15;19.65;;;;;;;25.27;56.20;101383.28;5024542;28;20080;-43
2022/06/19 06:33:55;;;;;;;49.90;20.38;;;;;;;25.30;57.20;101376.66;5025306;28;20042;-45
2022/06/19 06:36:22;;;;;;;48.45;20.27;;;;;;;25.30;57.42;101373.94;5022444;28;20051;-44
2022/06/19 06:38:49;;;;;;;167.55;41.85;;;;;;;25.30;57.10;101369.34;5021767;28;20309;-44
2022/06/19 06:41:16;;;;;;;143.82;39.85;;;;;;;25.32;56.63;101378.13;5020798;28;20053;-45
2022/06/19 06:43:44;;;;;;;92.13;32.47;;;;;;;25.33;56.33;101376.28;5016903;28;20054;-44
2022/06/19 06:46:18;;;;;;;94.50;34.83;;;;;;;25.33;56.33;101389.84;5022634;28;20049;-43
2022/06/19 06:48:47;;;;;;;84.50;34.00;;;;;;;25.32;55.60;101396.28;5019302;28;20139;-44
2022/06/19 06:51:17;;;;;;;89.03;33.95;;;;;;;25.31;56.02;101410.88;5024225;28;20041;-44
2022/06/19 06:53:43;;;;;;;87.88;33.35;;;;;;;25.31;55.61;101413.59;5021469;28;20358;-44
2022/06/19 06:56:10;;;;;;;76.90;31.73;;;;;;;25.30;55.64;101412.75;5025847;28;20053;-44
2022/06/19 06:58:38;;;;;;;71.28;28.98;;;;;;;25.30;55.16;101409.22;5021577;28;20287;-44
2022/06/19 07:01:10;;;;;;;70.05;28.88;;;;;;;25.29;55.22;101426.53;5020057;28;20060;-44
2022/06/19 07:03:37;;;;;;;66.72;30.25;;;;;;;25.28;55.11;101431.09;5023084;28;20172;-44
2022/06/19 07:06:03;;;;;;;67.90;27.65;;;;;;;25.27;54.93;101425.88;5021573;28;20629;-44
2022/06/19 07:08:30;;;;;;;66.78;29.02;;;;;;;25.26;54.59;101425.03;5019807;28;20508;-44
2022/06/19 07:10:56;;;;;;;72.25;28.92;;;;;;;25.26;54.82;101414.16;5020732;28;20307;-43
2022/06/19 07:13:23;;;;;;;69.70;28.58;;;;;;;25.25;54.26;101415.22;5017454;28;20059;-46
2022/06/19 07:15:51;;;;;;;67.40;26.58;;;;;;;25.26;54.16;101407.91;5022571;28;20042;-45
